sensor_id;sensor_type;location;lat;lon;timestamp;P1;durP1;ratioP1;P2;durP2;ratioP2
51296;SDS011;37380;45.186;9.792;2023-07-30T00:01:25;5.90;;;2.20;;
51296;SDS011;37380;45.186;9.792;2023-07-30T00:04:26;6.57;;;2.83;;
51296;SDS011;37380;45.186;9.792;2023-07-30T00:07:27;4.95;;;2.88;;
51296;SDS011;37380;45.186;9.792;2023-07-30T00:10:28;4.50;;;3.15;;
51296;SDS011;37380;45.186;9.792;2023-07-30T00:13:29;3.72;;;2.50;;
51296;SDS011;37380;45.186;9.792;2023-07-30T00:16:30;2.92;;;2.72;;
51296;SDS011;37380;45.186;9.792;2023-07-30T00:19:15;7.47;;;2.85;;
51296;SDS011;37380;45.186;9.792;2023-07-30T00:21:42;3.88;;;2.72;;
51296;SDS011;37380;45.186;9.792;2023-07-30T00:24:13;6.40;;;2.28;;
51296;SDS011;37380;45.186;9.792;2023-07-30T00:26:40;11.75;;;2.78;;
51296;SDS011;37380;45.186;9.792;2023-07-30T00:29:07;5.78;;;3.20;;
51296;SDS011;37380;45.186;9.792;2023-07-30T00:31:34;4.60;;;2.90;;
51296;SDS011;37380;45.186;9.792;2023-07-30T00:34:02;18.00;;;3.30;;
51296;SDS011;37380;45.186;9.792;2023-07-30T00:36:30;4.45;;;3.63;;
51296;SDS011;37380;45.186;9.792;2023-07-30T00:38:58;2.75;;;2.53;;
51296;SDS011;37380;45.186;9.792;2023-07-30T00:41:25;4.75;;;3.28;;
51296;SDS011;37380;45.186;9.792;2023-07-30T00:43:53;7.28;;;3.08;;
51296;SDS011;37380;45.186;9.792;2023-07-30T00:46:19;5.50;;;2.33;;
51296;SDS011;37380;45.186;9.792;2023-07-30T00:48:47;5.35;;;2.65;;
51296;SDS011;37380;45.186;9.792;2023-07-30T00:51:15;3.25;;;2.40;;
51296;SDS011;37380;45.186;9.792;2023-07-30T00:57:46;6.70;;;2.42;;
51296;SDS011;37380;45.186;9.792;2023-07-30T01:00:48;2.42;;;2.10;;
51296;SDS011;37380;45.186;9.792;2023-07-30T01:03:51;11.95;;;2.13;;
51296;SDS011;37380;45.186;9.792;2023-07-30T01:06:53;3.13;;;2.70;;
51296;SDS011;37380;45.186;9.792;2023-07-30T01:09:54;2.08;;;1.92;;
51296;SDS011;37380;45.186;9.792;2023-07-30T01:12:55;7.30;;;3.00;;
51296;SDS011;37380;45.186;9.792;2023-07-30T01:15:51;7.20;;;2.17;;
51296;SDS011;37380;45.186;9.792;2023-07-30T01:18:18;9.50;;;2.03;;
51296;SDS011;37380;45.186;9.792;2023-07-30T01:20:45;2.83;;;1.40;;
51296;SDS011;37380;45.186;9.792;2023-07-30T01:23:13;5.40;;;2.20;;
51296;SDS011;37380;45.186;9.792;2023-07-30T01:25:40;3.50;;;2.75;;
51296;SDS011;37380;45.186;9.792;2023-07-30T01:28:08;6.07;;;2.50;;
51296;SDS011;37380;45.186;9.792;2023-07-30T01:30:43;7.03;;;2.15;;
51296;SDS011;37380;45.186;9.792;2023-07-30T01:33:12;8.75;;;1.83;;
51296;SDS011;37380;45.186;9.792;2023-07-30T01:35:40;7.53;;;2.22;;
51296;SDS011;37380;45.186;9.792;2023-07-30T01:38:09;3.13;;;1.73;;
51296;SDS011;37380;45.186;9.792;2023-07-30T01:40:37;3.25;;;1.75;;
51296;SDS011;37380;45.186;9.792;2023-07-30T01:43:04;3.17;;;2.30;;
51296;SDS011;37380;45.186;9.792;2023-07-30T01:45:31;2.28;;;2.10;;
51296;SDS011;37380;45.186;9.792;2023-07-30T01:47:58;7.00;;;2.22;;
51296;SDS011;37380;45.186;9.792;2023-07-30T01:50:25;3.70;;;2.63;;
51296;SDS011;37380;45.186;9.792;2023-07-30T01:52:52;3.08;;;2.05;;
51296;SDS011;37380;45.186;9.792;2023-07-30T01:58:58;4.28;;;2.45;;
51296;SDS011;37380;45.186;9.792;2023-07-30T02:01:59;4.32;;;2.38;;
51296;SDS011;37380;45.186;9.792;2023-07-30T02:05:01;3.28;;;2.40;;
51296;SDS011;37380;45.186;9.792;2023-07-30T02:08:02;2.53;;;2.30;;
51296;SDS011;37380;45.186;9.792;2023-07-30T02:11:03;2.72;;;2.15;;
51296;SDS011;37380;45.186;9.792;2023-07-30T02:14:04;3.13;;;2.38;;
51296;SDS011;37380;45.186;9.792;2023-07-30T02:16:59;3.65;;;2.38;;
51296;SDS011;37380;45.186;9.792;2023-07-30T02:19:26;4.28;;;2.28;;
51296;SDS011;37380;45.186;9.792;2023-07-30T02:21:53;2.95;;;2.38;;
51296;SDS011;37380;45.186;9.792;2023-07-30T02:24:20;4.78;;;2.40;;
51296;SDS011;37380;45.186;9.792;2023-07-30T02:26:47;3.20;;;2.90;;
51296;SDS011;37380;45.186;9.792;2023-07-30T02:29:16;4.95;;;2.85;;
51296;SDS011;37380;45.186;9.792;2023-07-30T02:31:44;2.60;;;2.40;;
51296;SDS011;37380;45.186;9.792;2023-07-30T02:34:11;2.75;;;2.47;;
51296;SDS011;37380;45.186;9.792;2023-07-30T02:36:38;6.50;;;2.83;;
51296;SDS011;37380;45.186;9.792;2023-07-30T02:39:05;3.13;;;2.83;;
51296;SDS011;37380;45.186;9.792;2023-07-30T02:41:32;3.47;;;2.90;;
51296;SDS011;37380;45.186;9.792;2023-07-30T02:43:59;2.53;;;2.33;;
51296;SDS011;37380;45.186;9.792;2023-07-30T02:46:26;4.68;;;2.95;;
51296;SDS011;37380;45.186;9.792;2023-07-30T02:48:54;3.97;;;3.67;;
51296;SDS011;37380;45.186;9.792;2023-07-30T02:51:22;4.25;;;3.50;;
51296;SDS011;37380;45.186;9.792;2023-07-30T02:53:51;4.10;;;3.70;;
51296;SDS011;37380;45.186;9.792;2023-07-30T02:56:20;5.32;;;4.65;;
51296;SDS011;37380;45.186;9.792;2023-07-30T02:58:47;7.55;;;4.35;;
51296;SDS011;37380;45.186;9.792;2023-07-30T03:01:20;4.63;;;4.22;;
51296;SDS011;37380;45.186;9.792;2023-07-30T03:04:21;6.05;;;4.68;;
51296;SDS011;37380;45.186;9.792;2023-07-30T03:07:22;8.52;;;5.18;;
51296;SDS011;37380;45.186;9.792;2023-07-30T03:10:23;6.55;;;5.85;;
51296;SDS011;37380;45.186;9.792;2023-07-30T03:13:25;7.38;;;6.63;;
51296;SDS011;37380;45.186;9.792;2023-07-30T03:16:26;8.88;;;7.55;;
51296;SDS011;37380;45.186;9.792;2023-07-30T03:19:18;11.23;;;6.97;;
51296;SDS011;37380;45.186;9.792;2023-07-30T03:21:45;10.10;;;7.72;;
51296;SDS011;37380;45.186;9.792;2023-07-30T03:24:12;14.60;;;10.77;;
51296;SDS011;37380;45.186;9.792;2023-07-30T03:26:40;10.95;;;9.77;;
51296;SDS011;37380;45.186;9.792;2023-07-30T03:29:07;12.80;;;10.35;;
51296;SDS011;37380;45.186;9.792;2023-07-30T03:31:33;10.30;;;9.40;;
51296;SDS011;37380;45.186;9.792;2023-07-30T03:34:01;10.68;;;9.80;;
51296;SDS011;37380;45.186;9.792;2023-07-30T03:36:28;11.07;;;9.95;;
51296;SDS011;37380;45.186;9.792;2023-07-30T03:38:56;9.60;;;8.77;;
51296;SDS011;37380;45.186;9.792;2023-07-30T03:41:23;9.15;;;8.35;;
51296;SDS011;37380;45.186;9.792;2023-07-30T03:43:52;9.02;;;8.23;;
51296;SDS011;37380;45.186;9.792;2023-07-30T03:46:23;12.73;;;9.43;;
51296;SDS011;37380;45.186;9.792;2023-07-30T03:48:51;11.38;;;8.20;;
51296;SDS011;37380;45.186;9.792;2023-07-30T03:51:18;9.98;;;8.98;;
51296;SDS011;37380;45.186;9.792;2023-07-30T03:53:45;9.38;;;8.50;;
51296;SDS011;37380;45.186;9.792;2023-07-30T03:56:12;9.50;;;8.15;;
51296;SDS011;37380;45.186;9.792;2023-07-30T03:58:39;8.73;;;7.75;;
51296;SDS011;37380;45.186;9.792;2023-07-30T04:01:06;9.02;;;7.68;;
51296;SDS011;37380;45.186;9.792;2023-07-30T04:03:56;9.02;;;8.18;;
51296;SDS011;37380;45.186;9.792;2023-07-30T04:06:56;8.20;;;7.57;;
51296;SDS011;37380;45.186;9.792;2023-07-30T04:09:57;8.50;;;7.82;;
51296;SDS011;37380;45.186;9.792;2023-07-30T04:12:59;9.43;;;8.52;;
51296;SDS011;37380;45.186;9.792;2023-07-30T04:16:01;13.07;;;7.78;;
51296;SDS011;37380;45.186;9.792;2023-07-30T04:18:49;8.00;;;7.20;;
51296;SDS011;37380;45.186;9.792;2023-07-30T04:21:16;8.80;;;7.90;;
51296;SDS011;37380;45.186;9.792;2023-07-30T04:23:43;7.97;;;7.30;;
51296;SDS011;37380;45.186;9.792;2023-07-30T04:26:10;10.25;;;9.30;;
51296;SDS011;37380;45.186;9.792;2023-07-30T04:28:37;13.25;;;8.95;;
51296;SDS011;37380;45.186;9.792;2023-07-30T04:31:04;9.40;;;8.68;;
51296;SDS011;37380;45.186;9.792;2023-07-30T04:33:31;10.77;;;9.13;;
51296;SDS011;37380;45.186;9.792;2023-07-30T04:35:58;19.70;;;9.95;;
51296;SDS011;37380;45.186;9.792;2023-07-30T04:38:26;33.78;;;10.13;;
51296;SDS011;37380;45.186;9.792;2023-07-30T04:40:53;16.50;;;7.97;;
51296;SDS011;37380;45.186;9.792;2023-07-30T04:43:20;21.70;;;8.80;;
51296;SDS011;37380;45.186;9.792;2023-07-30T04:45:52;8.52;;;7.82;;
51296;SDS011;37380;45.186;9.792;2023-07-30T04:48:20;8.40;;;7.60;;
51296;SDS011;37380;45.186;9.792;2023-07-30T04:50:47;8.57;;;7.97;;
51296;SDS011;37380;45.186;9.792;2023-07-30T04:53:14;7.43;;;6.68;;
51296;SDS011;37380;45.186;9.792;2023-07-30T04:55:43;7.03;;;6.40;;
51296;SDS011;37380;45.186;9.792;2023-07-30T04:58:10;8.95;;;6.20;;
51296;SDS011;37380;45.186;9.792;2023-07-30T05:00:37;6.43;;;5.88;;
51296;SDS011;37380;45.186;9.792;2023-07-30T05:03:10;10.18;;;5.93;;
51296;SDS011;37380;45.186;9.792;2023-07-30T05:06:11;12.30;;;5.78;;
51296;SDS011;37380;45.186;9.792;2023-07-30T05:09:13;18.92;;;6.28;;
51296;SDS011;37380;45.186;9.792;2023-07-30T05:12:13;10.57;;;5.65;;
51296;SDS011;37380;45.186;9.792;2023-07-30T05:15:08;13.93;;;6.07;;
51296;SDS011;37380;45.186;9.792;2023-07-30T05:18:01;19.40;;;5.88;;
51296;SDS011;37380;45.186;9.792;2023-07-30T05:20:56;8.57;;;5.40;;
51296;SDS011;37380;45.186;9.792;2023-07-30T05:23:23;13.75;;;5.18;;
51296;SDS011;37380;45.186;9.792;2023-07-30T05:25:52;12.82;;;5.75;;
51296;SDS011;37380;45.186;9.792;2023-07-30T05:28:19;20.15;;;6.32;;
51296;SDS011;37380;45.186;9.792;2023-07-30T05:30:46;8.60;;;6.03;;
51296;SDS011;37380;45.186;9.792;2023-07-30T05:33:21;8.43;;;5.95;;
51296;SDS011;37380;45.186;9.792;2023-07-30T05:36:21;12.95;;;6.88;;
51296;SDS011;37380;45.186;9.792;2023-07-30T05:39:16;7.55;;;5.25;;
51296;SDS011;37380;45.186;9.792;2023-07-30T05:41:43;9.00;;;5.88;;
51296;SDS011;37380;45.186;9.792;2023-07-30T05:44:10;6.35;;;5.22;;
51296;SDS011;37380;45.186;9.792;2023-07-30T05:46:37;7.93;;;5.90;;
51296;SDS011;37380;45.186;9.792;2023-07-30T05:49:04;12.75;;;5.35;;
51296;SDS011;37380;45.186;9.792;2023-07-30T05:51:31;12.90;;;5.90;;
51296;SDS011;37380;45.186;9.792;2023-07-30T05:53:58;10.68;;;6.40;;
51296;SDS011;37380;45.186;9.792;2023-07-30T05:56:25;11.75;;;5.57;;
51296;SDS011;37380;45.186;9.792;2023-07-30T05:58:52;16.95;;;5.20;;
51296;SDS011;37380;45.186;9.792;2023-07-30T06:01:20;9.15;;;4.47;;
51296;SDS011;37380;45.186;9.792;2023-07-30T06:03:47;17.40;;;5.97;;
51296;SDS011;37380;45.186;9.792;2023-07-30T06:06:14;5.57;;;5.07;;
51296;SDS011;37380;45.186;9.792;2023-07-30T06:08:48;11.82;;;5.13;;
51296;SDS011;37380;45.186;9.792;2023-07-30T06:11:49;13.68;;;5.10;;
51296;SDS011;37380;45.186;9.792;2023-07-30T06:14:43;7.18;;;5.53;;
51296;SDS011;37380;45.186;9.792;2023-07-30T06:17:17;8.68;;;4.90;;
51296;SDS011;37380;45.186;9.792;2023-07-30T06:20:14;12.77;;;4.05;;
51296;SDS011;37380;45.186;9.792;2023-07-30T06:22:42;9.43;;;4.97;;
51296;SDS011;37380;45.186;9.792;2023-07-30T06:25:18;5.53;;;4.10;;
51296;SDS011;37380;45.186;9.792;2023-07-30T06:27:45;9.75;;;4.85;;
51296;SDS011;37380;45.186;9.792;2023-07-30T06:30:12;5.97;;;4.63;;
51296;SDS011;37380;45.186;9.792;2023-07-30T06:32:39;10.63;;;5.05;;
51296;SDS011;37380;45.186;9.792;2023-07-30T06:35:13;8.13;;;4.43;;
51296;SDS011;37380;45.186;9.792;2023-07-30T06:38:14;6.90;;;5.18;;
51296;SDS011;37380;45.186;9.792;2023-07-30T06:40:49;4.75;;;4.05;;
51296;SDS011;37380;45.186;9.792;2023-07-30T06:43:16;7.80;;;4.38;;
51296;SDS011;37380;45.186;9.792;2023-07-30T06:45:43;7.57;;;4.72;;
51296;SDS011;37380;45.186;9.792;2023-07-30T06:48:10;4.55;;;4.15;;
51296;SDS011;37380;45.186;9.792;2023-07-30T06:50:37;4.53;;;3.38;;
51296;SDS011;37380;45.186;9.792;2023-07-30T06:53:04;6.82;;;4.97;;
51296;SDS011;37380;45.186;9.792;2023-07-30T06:55:31;6.95;;;4.07;;
51296;SDS011;37380;45.186;9.792;2023-07-30T06:57:58;8.55;;;4.13;;
51296;SDS011;37380;45.186;9.792;2023-07-30T07:00:25;7.05;;;4.68;;
51296;SDS011;37380;45.186;9.792;2023-07-30T07:02:52;11.57;;;4.30;;
51296;SDS011;37380;45.186;9.792;2023-07-30T07:05:19;3.70;;;3.40;;
51296;SDS011;37380;45.186;9.792;2023-07-30T07:07:46;5.03;;;4.53;;
51296;SDS011;37380;45.186;9.792;2023-07-30T07:10:20;7.28;;;3.90;;
51296;SDS011;37380;45.186;9.792;2023-07-30T07:13:21;5.50;;;3.35;;
51296;SDS011;37380;45.186;9.792;2023-07-30T07:16:22;9.18;;;4.70;;
51296;SDS011;37380;45.186;9.792;2023-07-30T07:19:16;4.70;;;4.00;;
51296;SDS011;37380;45.186;9.792;2023-07-30T07:21:43;5.22;;;4.82;;
51296;SDS011;37380;45.186;9.792;2023-07-30T07:24:10;7.85;;;5.50;;
51296;SDS011;37380;45.186;9.792;2023-07-30T07:26:37;8.82;;;5.72;;
51296;SDS011;37380;45.186;9.792;2023-07-30T07:29:11;8.80;;;4.53;;
51296;SDS011;37380;45.186;9.792;2023-07-30T07:32:12;5.75;;;5.25;;
51296;SDS011;37380;45.186;9.792;2023-07-30T07:35:13;11.88;;;5.40;;
51296;SDS011;37380;45.186;9.792;2023-07-30T07:38:14;9.65;;;5.22;;
51296;SDS011;37380;45.186;9.792;2023-07-30T07:40:48;5.57;;;4.97;;
51296;SDS011;37380;45.186;9.792;2023-07-30T07:43:17;11.75;;;5.90;;
51296;SDS011;37380;45.186;9.792;2023-07-30T07:45:44;6.72;;;4.70;;
51296;SDS011;37380;45.186;9.792;2023-07-30T07:48:11;7.70;;;4.45;;
51296;SDS011;37380;45.186;9.792;2023-07-30T07:50:38;6.75;;;4.53;;
51296;SDS011;37380;45.186;9.792;2023-07-30T07:53:05;8.73;;;5.50;;
51296;SDS011;37380;45.186;9.792;2023-07-30T07:55:33;5.00;;;4.15;;
51296;SDS011;37380;45.186;9.792;2023-07-30T07:57:59;5.53;;;4.90;;
51296;SDS011;37380;45.186;9.792;2023-07-30T08:00:26;5.63;;;5.00;;
51296;SDS011;37380;45.186;9.792;2023-07-30T08:02:54;5.40;;;3.80;;
51296;SDS011;37380;45.186;9.792;2023-07-30T08:05:21;4.15;;;3.53;;
51296;SDS011;37380;45.186;9.792;2023-07-30T08:07:48;5.07;;;3.72;;
51296;SDS011;37380;45.186;9.792;2023-07-30T08:10:22;5.65;;;3.55;;
51296;SDS011;37380;45.186;9.792;2023-07-30T08:13:23;9.73;;;4.35;;
51296;SDS011;37380;45.186;9.792;2023-07-30T08:16:21;5.53;;;4.60;;
51296;SDS011;37380;45.186;9.792;2023-07-30T08:19:22;5.53;;;5.00;;
51296;SDS011;37380;45.186;9.792;2023-07-30T08:22:16;6.13;;;4.50;;
51296;SDS011;37380;45.186;9.792;2023-07-30T08:24:43;10.10;;;5.07;;
51296;SDS011;37380;45.186;9.792;2023-07-30T08:27:10;6.07;;;3.85;;
51296;SDS011;37380;45.186;9.792;2023-07-30T08:29:44;7.32;;;4.15;;
51296;SDS011;37380;45.186;9.792;2023-07-30T08:32:45;4.95;;;4.20;;
51296;SDS011;37380;45.186;9.792;2023-07-30T08:35:46;4.68;;;4.07;;
51296;SDS011;37380;45.186;9.792;2023-07-30T08:38:47;7.35;;;4.53;;
51296;SDS011;37380;45.186;9.792;2023-07-30T08:41:41;9.65;;;5.07;;
51296;SDS011;37380;45.186;9.792;2023-07-30T08:44:09;4.95;;;3.90;;
51296;SDS011;37380;45.186;9.792;2023-07-30T08:46:36;6.28;;;5.07;;
51296;SDS011;37380;45.186;9.792;2023-07-30T08:49:03;5.00;;;4.40;;
51296;SDS011;37380;45.186;9.792;2023-07-30T08:51:31;4.82;;;4.18;;
51296;SDS011;37380;45.186;9.792;2023-07-30T08:53:58;7.72;;;4.57;;
51296;SDS011;37380;45.186;9.792;2023-07-30T08:56:27;5.30;;;4.80;;
51296;SDS011;37380;45.186;9.792;2023-07-30T08:58:54;4.55;;;4.15;;
51296;SDS011;37380;45.186;9.792;2023-07-30T09:01:30;5.45;;;4.00;;
51296;SDS011;37380;45.186;9.792;2023-07-30T09:04:11;6.68;;;4.65;;
51296;SDS011;37380;45.186;9.792;2023-07-30T09:07:12;7.15;;;4.47;;
51296;SDS011;37380;45.186;9.792;2023-07-30T09:10:13;7.63;;;4.45;;
51296;SDS011;37380;45.186;9.792;2023-07-30T09:13:16;5.90;;;4.65;;
51296;SDS011;37380;45.186;9.792;2023-07-30T09:16:14;6.50;;;4.10;;
51296;SDS011;37380;45.186;9.792;2023-07-30T09:18:43;5.85;;;3.70;;
51296;SDS011;37380;45.186;9.792;2023-07-30T09:21:12;4.05;;;3.67;;
51296;SDS011;37380;45.186;9.792;2023-07-30T09:23:48;5.75;;;4.50;;
51296;SDS011;37380;45.186;9.792;2023-07-30T09:26:49;5.55;;;4.18;;
51296;SDS011;37380;45.186;9.792;2023-07-30T09:29:54;5.57;;;2.92;;
51296;SDS011;37380;45.186;9.792;2023-07-30T09:32:56;7.00;;;4.28;;
51296;SDS011;37380;45.186;9.792;2023-07-30T09:35:32;5.93;;;3.55;;
51296;SDS011;37380;45.186;9.792;2023-07-30T09:38:27;6.38;;;3.45;;
51296;SDS011;37380;45.186;9.792;2023-07-30T09:41:01;3.83;;;3.53;;
51296;SDS011;37380;45.186;9.792;2023-07-30T09:43:29;3.65;;;3.30;;
51296;SDS011;37380;45.186;9.792;2023-07-30T09:46:06;20.65;;;3.45;;
51296;SDS011;37380;45.186;9.792;2023-07-30T09:49:00;7.05;;;4.30;;
51296;SDS011;37380;45.186;9.792;2023-07-30T09:51:31;3.95;;;3.55;;
51296;SDS011;37380;45.186;9.792;2023-07-30T09:54:00;5.22;;;2.85;;
51296;SDS011;37380;45.186;9.792;2023-07-30T09:56:28;6.57;;;4.25;;
51296;SDS011;37380;45.186;9.792;2023-07-30T09:58:55;4.07;;;3.67;;
51296;SDS011;37380;45.186;9.792;2023-07-30T10:01:22;5.57;;;4.15;;
51296;SDS011;37380;45.186;9.792;2023-07-30T10:03:57;4.85;;;3.78;;
51296;SDS011;37380;45.186;9.792;2023-07-30T10:06:25;3.53;;;3.20;;
51296;SDS011;37380;45.186;9.792;2023-07-30T10:09:03;6.07;;;2.80;;
51296;SDS011;37380;45.186;9.792;2023-07-30T10:12:04;6.05;;;3.72;;
51296;SDS011;37380;45.186;9.792;2023-07-30T10:15:00;2.92;;;2.70;;
51296;SDS011;37380;45.186;9.792;2023-07-30T10:17:29;4.13;;;2.75;;
51296;SDS011;37380;45.186;9.792;2023-07-30T10:20:17;5.72;;;3.08;;
51296;SDS011;37380;45.186;9.792;2023-07-30T10:22:46;2.08;;;1.98;;
51296;SDS011;37380;45.186;9.792;2023-07-30T10:25:13;6.72;;;3.42;;
51296;SDS011;37380;45.186;9.792;2023-07-30T10:27:40;9.00;;;3.33;;
51296;SDS011;37380;45.186;9.792;2023-07-30T10:30:19;4.70;;;2.58;;
51296;SDS011;37380;45.186;9.792;2023-07-30T10:33:04;11.25;;;2.90;;
51296;SDS011;37380;45.186;9.792;2023-07-30T10:36:02;3.83;;;2.83;;
51296;SDS011;37380;45.186;9.792;2023-07-30T10:38:29;10.75;;;2.75;;
51296;SDS011;37380;45.186;9.792;2023-07-30T10:41:07;13.00;;;3.95;;
51296;SDS011;37380;45.186;9.792;2023-07-30T10:44:44;4.65;;;3.03;;
51296;SDS011;37380;45.186;9.792;2023-07-30T10:47:09;7.45;;;2.78;;
51296;SDS011;37380;45.186;9.792;2023-07-30T10:49:52;3.65;;;1.98;;
51296;SDS011;37380;45.186;9.792;2023-07-30T10:52:23;4.80;;;2.72;;
51296;SDS011;37380;45.186;9.792;2023-07-30T10:54:59;3.28;;;2.47;;
51296;SDS011;37380;45.186;9.792;2023-07-30T10:57:30;4.03;;;2.72;;
51296;SDS011;37380;45.186;9.792;2023-07-30T11:00:01;3.80;;;3.50;;
51296;SDS011;37380;45.186;9.792;2023-07-30T11:02:29;4.07;;;2.63;;
51296;SDS011;37380;45.186;9.792;2023-07-30T11:04:57;5.97;;;2.80;;
51296;SDS011;37380;45.186;9.792;2023-07-30T11:07:24;3.35;;;2.60;;
51296;SDS011;37380;45.186;9.792;2023-07-30T11:09:58;9.00;;;2.50;;
51296;SDS011;37380;45.186;9.792;2023-07-30T11:13:00;2.42;;;2.22;;
51296;SDS011;37380;45.186;9.792;2023-07-30T11:15:54;3.20;;;2.15;;
51296;SDS011;37380;45.186;9.792;2023-07-30T11:18:21;4.22;;;3.05;;
51296;SDS011;37380;45.186;9.792;2023-07-30T11:20:48;2.95;;;2.65;;
51296;SDS011;37380;45.186;9.792;2023-07-30T11:23:23;2.75;;;2.55;;
51296;SDS011;37380;45.186;9.792;2023-07-30T11:26:24;4.28;;;2.72;;
51296;SDS011;37380;45.186;9.792;2023-07-30T11:29:19;4.07;;;2.55;;
51296;SDS011;37380;45.186;9.792;2023-07-30T11:31:47;2.42;;;2.22;;
51296;SDS011;37380;45.186;9.792;2023-07-30T11:34:14;3.22;;;2.17;;
51296;SDS011;37380;45.186;9.792;2023-07-30T11:36:42;4.22;;;2.80;;
51296;SDS011;37380;45.186;9.792;2023-07-30T11:39:16;4.40;;;2.97;;
51296;SDS011;37380;45.186;9.792;2023-07-30T11:42:17;5.30;;;2.72;;
51296;SDS011;37380;45.186;9.792;2023-07-30T11:45:19;4.90;;;2.83;;
51296;SDS011;37380;45.186;9.792;2023-07-30T11:48:23;4.25;;;2.33;;
51296;SDS011;37380;45.186;9.792;2023-07-30T11:53:49;3.03;;;2.22;;
51296;SDS011;37380;45.186;9.792;2023-07-30T11:56:27;4.45;;;2.88;;
51296;SDS011;37380;45.186;9.792;2023-07-30T11:59:30;4.97;;;3.28;;
51296;SDS011;37380;45.186;9.792;2023-07-30T12:02:26;4.30;;;3.15;;
51296;SDS011;37380;45.186;9.792;2023-07-30T12:05:00;4.65;;;3.13;;
51296;SDS011;37380;45.186;9.792;2023-07-30T12:08:01;9.75;;;2.50;;
51296;SDS011;37380;45.186;9.792;2023-07-30T12:11:03;6.07;;;2.17;;
51296;SDS011;37380;45.186;9.792;2023-07-30T12:13:59;3.03;;;2.13;;
51296;SDS011;37380;45.186;9.792;2023-07-30T12:16:27;5.13;;;2.28;;
51296;SDS011;37380;45.186;9.792;2023-07-30T12:18:54;3.25;;;2.33;;
51296;SDS011;37380;45.186;9.792;2023-07-30T12:21:21;5.63;;;3.13;;
51296;SDS011;37380;45.186;9.792;2023-07-30T12:23:48;8.27;;;3.50;;
51296;SDS011;37380;45.186;9.792;2023-07-30T12:26:15;2.75;;;2.30;;
51296;SDS011;37380;45.186;9.792;2023-07-30T12:28:43;3.45;;;2.45;;
51296;SDS011;37380;45.186;9.792;2023-07-30T12:31:10;9.90;;;3.08;;
51296;SDS011;37380;45.186;9.792;2023-07-30T12:33:44;4.50;;;2.70;;
51296;SDS011;37380;45.186;9.792;2023-07-30T12:36:45;4.63;;;3.28;;
51296;SDS011;37380;45.186;9.792;2023-07-30T12:39:46;4.78;;;2.80;;
51296;SDS011;37380;45.186;9.792;2023-07-30T12:42:47;5.45;;;3.13;;
51296;SDS011;37380;45.186;9.792;2023-07-30T12:45:29;4.88;;;2.65;;
51296;SDS011;37380;45.186;9.792;2023-07-30T12:48:00;3.45;;;2.88;;
51296;SDS011;37380;45.186;9.792;2023-07-30T12:50:27;2.97;;;2.72;;
51296;SDS011;37380;45.186;9.792;2023-07-30T12:52:54;7.18;;;3.10;;
51296;SDS011;37380;45.186;9.792;2023-07-30T12:55:21;10.70;;;2.90;;
51296;SDS011;37380;45.186;9.792;2023-07-30T12:57:48;7.78;;;2.38;;
51296;SDS011;37380;45.186;9.792;2023-07-30T13:00:15;2.65;;;2.33;;
51296;SDS011;37380;45.186;9.792;2023-07-30T13:02:44;3.22;;;2.80;;
51296;SDS011;37380;45.186;9.792;2023-07-30T13:05:18;2.58;;;2.05;;
51296;SDS011;37380;45.186;9.792;2023-07-30T13:08:20;3.42;;;2.63;;
51296;SDS011;37380;45.186;9.792;2023-07-30T13:11:21;2.75;;;2.47;;
51296;SDS011;37380;45.186;9.792;2023-07-30T13:14:22;3.60;;;2.40;;
51296;SDS011;37380;45.186;9.792;2023-07-30T13:17:23;2.17;;;1.98;;
51296;SDS011;37380;45.186;9.792;2023-07-30T13:20:18;2.53;;;2.20;;
51296;SDS011;37380;45.186;9.792;2023-07-30T13:22:46;2.65;;;2.45;;
51296;SDS011;37380;45.186;9.792;2023-07-30T13:25:13;3.67;;;2.22;;
51296;SDS011;37380;45.186;9.792;2023-07-30T13:27:40;6.85;;;2.75;;
51296;SDS011;37380;45.186;9.792;2023-07-30T13:30:07;2.28;;;2.08;;
51296;SDS011;37380;45.186;9.792;2023-07-30T13:32:35;4.35;;;2.20;;
51296;SDS011;37380;45.186;9.792;2023-07-30T13:35:09;9.10;;;2.92;;
51296;SDS011;37380;45.186;9.792;2023-07-30T13:38:11;2.42;;;2.17;;
51296;SDS011;37380;45.186;9.792;2023-07-30T13:41:01;4.57;;;2.22;;
51296;SDS011;37380;45.186;9.792;2023-07-30T13:43:28;2.42;;;1.80;;
51296;SDS011;37380;45.186;9.792;2023-07-30T13:45:55;8.07;;;3.45;;
51296;SDS011;37380;45.186;9.792;2023-07-30T13:48:24;8.23;;;3.00;;
51296;SDS011;37380;45.186;9.792;2023-07-30T13:50:52;4.50;;;2.45;;
51296;SDS011;37380;45.186;9.792;2023-07-30T13:53:19;7.25;;;2.58;;
51296;SDS011;37380;45.186;9.792;2023-07-30T13:55:46;5.03;;;2.50;;
51296;SDS011;37380;45.186;9.792;2023-07-30T13:58:14;2.78;;;2.53;;
51296;SDS011;37380;45.186;9.792;2023-07-30T14:00:44;3.03;;;2.03;;
51296;SDS011;37380;45.186;9.792;2023-07-30T14:03:12;3.67;;;2.42;;
51296;SDS011;37380;45.186;9.792;2023-07-30T14:05:46;11.05;;;2.85;;
51296;SDS011;37380;45.186;9.792;2023-07-30T14:08:48;3.45;;;2.67;;
51296;SDS011;37380;45.186;9.792;2023-07-30T14:11:50;3.20;;;2.30;;
51296;SDS011;37380;45.186;9.792;2023-07-30T14:14:44;3.72;;;2.33;;
51296;SDS011;37380;45.186;9.792;2023-07-30T14:17:15;5.07;;;2.50;;
51296;SDS011;37380;45.186;9.792;2023-07-30T14:19:43;11.50;;;2.50;;
51296;SDS011;37380;45.186;9.792;2023-07-30T14:22:13;3.05;;;2.75;;
51296;SDS011;37380;45.186;9.792;2023-07-30T14:24:40;8.65;;;3.08;;
51296;SDS011;37380;45.186;9.792;2023-07-30T14:27:10;5.97;;;3.13;;
51296;SDS011;37380;45.186;9.792;2023-07-30T14:29:40;3.38;;;2.58;;
51296;SDS011;37380;45.186;9.792;2023-07-30T14:32:11;3.05;;;2.55;;
51296;SDS011;37380;45.186;9.792;2023-07-30T14:34:39;8.60;;;2.30;;
51296;SDS011;37380;45.186;9.792;2023-07-30T14:37:11;2.60;;;2.30;;
51296;SDS011;37380;45.186;9.792;2023-07-30T14:39:39;12.50;;;1.98;;
51296;SDS011;37380;45.186;9.792;2023-07-30T14:42:08;6.45;;;2.42;;
51296;SDS011;37380;45.186;9.792;2023-07-30T14:44:38;1.98;;;1.85;;
51296;SDS011;37380;45.186;9.792;2023-07-30T14:47:08;7.03;;;2.67;;
51296;SDS011;37380;45.186;9.792;2023-07-30T14:49:46;3.08;;;2.55;;
51296;SDS011;37380;45.186;9.792;2023-07-30T14:52:47;4.00;;;2.40;;
51296;SDS011;37380;45.186;9.792;2023-07-30T14:55:48;2.40;;;2.20;;
51296;SDS011;37380;45.186;9.792;2023-07-30T14:58:52;3.00;;;2.70;;
51296;SDS011;37380;45.186;9.792;2023-07-30T15:01:54;4.32;;;2.78;;
51296;SDS011;37380;45.186;9.792;2023-07-30T15:05:10;3.47;;;2.05;;
51296;SDS011;37380;45.186;9.792;2023-07-30T15:08:05;3.45;;;2.60;;
51296;SDS011;37380;45.186;9.792;2023-07-30T15:11:06;5.82;;;2.75;;
51296;SDS011;37380;45.186;9.792;2023-07-30T15:14:10;5.72;;;2.35;;
51296;SDS011;37380;45.186;9.792;2023-07-30T15:17:14;12.85;;;2.78;;
51296;SDS011;37380;45.186;9.792;2023-07-30T15:20:08;2.15;;;1.98;;
51296;SDS011;37380;45.186;9.792;2023-07-30T15:22:36;5.03;;;2.63;;
51296;SDS011;37380;45.186;9.792;2023-07-30T15:25:04;4.13;;;1.98;;
51296;SDS011;37380;45.186;9.792;2023-07-30T15:27:32;3.55;;;3.22;;
51296;SDS011;37380;45.186;9.792;2023-07-30T15:30:03;2.40;;;2.13;;
51296;SDS011;37380;45.186;9.792;2023-07-30T15:33:00;2.28;;;2.00;;
51296;SDS011;37380;45.186;9.792;2023-07-30T15:35:57;6.93;;;3.00;;
51296;SDS011;37380;45.186;9.792;2023-07-30T15:38:35;3.88;;;2.70;;
51296;SDS011;37380;45.186;9.792;2023-07-30T15:41:39;6.82;;;2.53;;
51296;SDS011;37380;45.186;9.792;2023-07-30T15:44:13;3.97;;;2.22;;
51296;SDS011;37380;45.186;9.792;2023-07-30T15:46:44;9.00;;;2.30;;
51296;SDS011;37380;45.186;9.792;2023-07-30T15:49:15;3.55;;;2.80;;
51296;SDS011;37380;45.186;9.792;2023-07-30T15:51:43;3.10;;;2.28;;
51296;SDS011;37380;45.186;9.792;2023-07-30T15:54:11;2.45;;;2.13;;
51296;SDS011;37380;45.186;9.792;2023-07-30T15:56:46;18.52;;;3.08;;
51296;SDS011;37380;45.186;9.792;2023-07-30T15:59:47;3.42;;;2.85;;
51296;SDS011;37380;45.186;9.792;2023-07-30T16:02:20;3.28;;;2.30;;